createdAt,value
2022-09-15T00:01:04.723Z,13.60
2022-09-15T00:03:31.627Z,13.60
2022-09-15T00:05:58.486Z,13.60
2022-09-15T00:08:26.056Z,13.50
2022-09-15T00:11:05.880Z,13.60
2022-09-15T00:13:34.797Z,13.60
2022-09-15T00:16:02.182Z,13.60
2022-09-15T00:18:29.477Z,13.60
2022-09-15T00:20:56.393Z,13.70
2022-09-15T00:23:23.333Z,13.70
2022-09-15T00:25:52.302Z,13.70
2022-09-15T00:28:21.721Z,13.70
2022-09-15T00:30:51.884Z,13.70
2022-09-15T00:33:20.623Z,13.70
2022-09-15T00:35:49.566Z,13.70
2022-09-15T00:38:18.244Z,13.70
2022-09-15T00:40:53.829Z,13.70
2022-09-15T00:43:40.735Z,13.70
2022-09-15T00:46:08.517Z,13.70
2022-09-15T00:48:37.930Z,13.70
2022-09-15T00:51:06.778Z,13.80
2022-09-15T00:53:34.412Z,13.80
2022-09-15T00:56:03.176Z,13.80
2022-09-15T00:58:48.379Z,13.80
2022-09-15T01:01:16.470Z,13.80
2022-09-15T01:03:43.869Z,13.80
2022-09-15T01:06:23.706Z,13.80
2022-09-15T01:08:57.043Z,13.80
2022-09-15T01:11:24.144Z,13.80
2022-09-15T01:13:50.974Z,13.80
2022-09-15T01:16:42.260Z,13.80
2022-09-15T01:19:45.939Z,13.80
2022-09-15T01:22:21.217Z,13.80
2022-09-15T01:25:06.917Z,13.70
2022-09-15T01:27:59.883Z,13.70
2022-09-15T01:30:27.610Z,13.70
2022-09-15T01:33:06.801Z,13.70
2022-09-15T01:36:04.727Z,13.70
2022-09-15T01:38:55.865Z,13.70
2022-09-15T01:41:46.788Z,13.70
2022-09-15T01:44:20.188Z,13.70
2022-09-15T01:46:51.916Z,13.70
2022-09-15T01:49:25.172Z,13.60
2022-09-15T01:51:54.123Z,13.60
2022-09-15T01:54:26.387Z,13.60
2022-09-15T01:56:53.205Z,13.60
2022-09-15T01:59:20.193Z,13.60
2022-09-15T02:01:59.440Z,13.60
2022-09-15T02:04:38.771Z,13.60
2022-09-15T02:07:39.219Z,13.60
2022-09-15T02:10:16.916Z,13.60
2022-09-15T02:12:56.122Z,13.60
2022-09-15T02:15:35.849Z,13.60
2022-09-15T02:18:08.536Z,13.60
2022-09-15T02:20:48.603Z,13.60
2022-09-15T02:23:21.894Z,13.60
2022-09-15T02:25:57.132Z,13.60
2022-09-15T02:28:31.312Z,13.60
2022-09-15T02:31:00.732Z,13.60
2022-09-15T02:33:33.196Z,13.60
2022-09-15T02:36:00.820Z,13.50
2022-09-15T02:38:33.420Z,13.50
2022-09-15T02:41:01.256Z,13.50
2022-09-15T02:43:29.177Z,13.50
2022-09-15T02:45:57.650Z,13.50
2022-09-15T02:48:25.384Z,13.50
2022-09-15T02:50:52.239Z,13.60
2022-09-15T02:53:19.060Z,13.60
2022-09-15T02:55:45.875Z,13.60
2022-09-15T02:58:12.718Z,13.70
2022-09-15T03:00:39.692Z,13.70
2022-09-15T03:03:06.556Z,13.70
2022-09-15T03:05:33.391Z,13.70
2022-09-15T03:08:00.233Z,13.70
2022-09-15T03:10:27.064Z,13.70
2022-09-15T03:12:54.910Z,13.60
2022-09-15T03:15:24.499Z,13.70
2022-09-15T03:17:52.148Z,13.70
2022-09-15T03:20:22.581Z,13.70
2022-09-15T03:22:50.003Z,13.70
2022-09-15T03:25:17.725Z,13.60
2022-09-15T03:27:44.607Z,13.60
2022-09-15T03:30:12.081Z,13.60
2022-09-15T03:32:39.028Z,13.60
2022-09-15T03:35:06.910Z,13.70
2022-09-15T03:37:34.044Z,13.60
2022-09-15T03:40:01.077Z,13.60
2022-09-15T03:42:27.870Z,13.60
2022-09-15T03:44:54.873Z,13.60
2022-09-15T03:47:21.728Z,13.60
2022-09-15T03:49:48.563Z,13.50
2022-09-15T03:52:15.402Z,13.60
2022-09-15T03:54:42.225Z,13.50
2022-09-15T03:57:09.078Z,13.50
2022-09-15T03:59:35.968Z,13.50
2022-09-15T04:02:02.950Z,13.50
2022-09-15T04:04:30.011Z,13.50
2022-09-15T04:06:56.850Z,13.50
2022-09-15T04:09:24.741Z,13.50
2022-09-15T04:11:51.598Z,13.60
2022-09-15T04:14:18.426Z,13.50
2022-09-15T04:16:45.346Z,13.60
2022-09-15T04:19:12.411Z,13.60
2022-09-15T04:21:39.395Z,13.60
2022-09-15T04:24:06.359Z,13.60
2022-09-15T04:26:35.691Z,13.60
2022-09-15T04:29:05.863Z,13.50
2022-09-15T04:31:34.107Z,13.60
2022-09-15T04:34:01.502Z,13.60
2022-09-15T04:36:29.285Z,13.50
2022-09-15T04:38:57.219Z,13.60
2022-09-15T04:41:25.743Z,13.60
2022-09-15T04:43:53.349Z,13.60
2022-09-15T04:46:20.885Z,13.60
2022-09-15T04:48:48.896Z,13.60
2022-09-15T04:51:19.170Z,13.70
2022-09-15T04:53:46.622Z,13.60
2022-09-15T04:56:16.539Z,13.70
2022-09-15T04:58:45.962Z,13.70
2022-09-15T05:01:19.185Z,13.60
2022-09-15T05:03:46.984Z,13.60
2022-09-15T05:06:17.092Z,13.60
2022-09-15T05:08:48.052Z,13.70
2022-09-15T05:11:15.407Z,13.70
2022-09-15T05:13:42.868Z,13.70
2022-09-15T05:16:24.422Z,13.70
2022-09-15T05:18:51.982Z,13.70
2022-09-15T05:21:20.805Z,13.70
2022-09-15T05:23:48.427Z,13.70
2022-09-15T05:26:22.237Z,13.70
2022-09-15T05:28:49.437Z,13.70
2022-09-15T05:31:25.744Z,13.70
2022-09-15T05:33:53.715Z,13.80
2022-09-15T05:36:25.121Z,13.80
2022-09-15T05:38:58.381Z,13.80
2022-09-15T05:41:26.798Z,13.80
2022-09-15T05:43:57.100Z,13.80
2022-09-15T05:46:26.284Z,13.80
2022-09-15T05:48:55.353Z,13.90
2022-09-15T05:51:22.631Z,13.90
2022-09-15T05:53:49.500Z,13.90
2022-09-15T05:56:17.424Z,13.90
2022-09-15T05:58:46.366Z,13.90
2022-09-15T06:01:19.345Z,14.00
2022-09-15T06:03:47.170Z,14.00
2022-09-15T06:06:14.348Z,14.10
2022-09-15T06:08:45.334Z,14.10
2022-09-15T06:11:16.685Z,14.20
2022-09-15T06:13:44.447Z,14.30
2022-09-15T06:16:14.370Z,14.30
2022-09-15T06:18:42.052Z,14.40
2022-09-15T06:21:19.939Z,14.50
2022-09-15T06:23:50.647Z,14.40
2022-09-15T06:26:19.252Z,14.50
2022-09-15T06:29:01.009Z,14.70
2022-09-15T06:31:30.085Z,14.80
2022-09-15T06:33:58.337Z,14.90
2022-09-15T06:36:27.581Z,15.10
2022-09-15T06:38:55.192Z,15.30
2022-09-15T06:41:22.132Z,15.30
2022-09-15T06:43:49.485Z,15.20
2022-09-15T06:46:22.428Z,15.10
2022-09-15T06:48:51.283Z,15.00
2022-09-15T06:51:22.387Z,14.90
2022-09-15T06:53:49.371Z,14.80
2022-09-15T06:56:19.103Z,14.80
2022-09-15T06:58:49.257Z,14.80
2022-09-15T07:01:25.997Z,14.90
2022-09-15T07:03:53.867Z,15.00
2022-09-15T07:06:21.932Z,15.00
2022-09-15T07:08:49.937Z,14.90
2022-09-15T07:11:18.380Z,14.90
2022-09-15T07:13:46.018Z,14.90
2022-09-15T07:16:13.408Z,15.10
2022-09-15T07:18:43.241Z,15.20
2022-09-15T07:21:15.994Z,15.30
2022-09-15T07:23:43.774Z,15.40
2022-09-15T07:26:16.838Z,15.40
2022-09-15T07:28:46.562Z,15.50
2022-09-15T07:31:16.373Z,15.50
2022-09-15T07:33:43.426Z,15.50
2022-09-15T07:36:11.399Z,15.60
2022-09-15T07:38:45.031Z,15.60
2022-09-15T07:41:15.566Z,15.60
2022-09-15T07:43:49.510Z,15.80
2022-09-15T07:46:17.657Z,15.80
2022-09-15T07:48:45.892Z,15.80
2022-09-15T07:51:13.205Z,15.80
2022-09-15T07:53:40.109Z,15.80
2022-09-15T07:56:08.122Z,15.80
2022-09-15T07:58:35.264Z,15.90
2022-09-15T08:01:07.578Z,16.00
2022-09-15T08:03:34.498Z,15.90
2022-09-15T08:06:03.030Z,15.90
2022-09-15T08:08:30.512Z,15.90
2022-09-15T08:10:58.330Z,15.70
2022-09-15T08:13:25.466Z,15.70
2022-09-15T08:15:52.555Z,15.60
2022-09-15T08:18:19.528Z,15.50
2022-09-15T08:20:46.459Z,15.50
2022-09-15T08:23:13.308Z,15.50
2022-09-15T08:25:40.166Z,15.40
2022-09-15T08:28:07.076Z,15.30
2022-09-15T08:30:34.076Z,15.30
2022-09-15T08:33:00.924Z,15.30
2022-09-15T08:35:29.398Z,15.20
2022-09-15T08:37:56.312Z,15.20
2022-09-15T08:40:35.889Z,15.20
2022-09-15T08:43:12.039Z,15.10
2022-09-15T08:45:55.323Z,15.10
2022-09-15T08:48:29.839Z,15.20
2022-09-15T08:50:59.959Z,15.20
2022-09-15T08:53:33.782Z,15.20
2022-09-15T08:56:09.364Z,15.20
2022-09-15T08:58:37.846Z,15.30
2022-09-15T09:01:10.913Z,15.40
2022-09-15T09:03:48.316Z,15.40
2022-09-15T09:06:17.926Z,15.30
2022-09-15T09:09:17.002Z,15.30
2022-09-15T09:12:12.630Z,15.10
2022-09-15T09:15:16.883Z,15.10
2022-09-15T09:18:14.508Z,15.10
2022-09-15T09:21:12.547Z,15.10
2022-09-15T09:24:06.065Z,15.30
2022-09-15T09:26:36.276Z,15.40
2022-09-15T09:29:12.073Z,15.30
2022-09-15T09:31:41.299Z,15.20
2022-09-15T09:34:28.582Z,15.20
2022-09-15T09:36:59.960Z,15.10
2022-09-15T09:39:30.484Z,15.10
2022-09-15T09:41:58.082Z,15.10
2022-09-15T09:44:32.173Z,15.10
2022-09-15T09:47:01.086Z,15.10
2022-09-15T09:49:34.574Z,15.00
2022-09-15T09:52:11.356Z,15.00
2022-09-15T09:54:38.593Z,14.90
2022-09-15T09:57:14.426Z,14.80
2022-09-15T09:59:43.298Z,14.90
2022-09-15T10:02:21.864Z,15.00
2022-09-15T10:04:55.272Z,15.00
2022-09-15T10:07:27.284Z,15.10
2022-09-15T10:09:59.620Z,15.20
2022-09-15T10:12:33.038Z,15.00
2022-09-15T10:15:03.126Z,15.10
2022-09-15T10:17:36.199Z,15.00
2022-09-15T10:20:05.722Z,15.10
2022-09-15T10:22:40.958Z,15.00
2022-09-15T10:25:20.345Z,15.00
2022-09-15T10:28:10.708Z,15.00
2022-09-15T10:30:38.213Z,14.90
2022-09-15T10:33:35.581Z,14.90
2022-09-15T10:36:04.872Z,15.00
2022-09-15T10:38:45.741Z,14.90
2022-09-15T10:41:28.678Z,14.90
2022-09-15T10:44:14.505Z,14.90
2022-09-15T10:47:06.770Z,14.90
2022-09-15T10:50:01.555Z,14.80
2022-09-15T10:52:52.435Z,14.80
2022-09-15T10:55:52.819Z,14.80
2022-09-15T10:58:26.011Z,14.80
2022-09-15T11:00:52.973Z,14.80
2022-09-15T11:03:46.829Z,14.90
2022-09-15T11:06:30.184Z,14.80
2022-09-15T11:09:15.107Z,14.80
2022-09-15T11:12:04.281Z,14.80
2022-09-15T11:14:44.811Z,14.90
2022-09-15T11:17:30.475Z,14.80
2022-09-15T11:20:09.260Z,14.90
2022-09-15T11:22:42.658Z,14.90
2022-09-15T11:25:28.162Z,14.90
2022-09-15T11:28:03.974Z,15.00
2022-09-15T11:30:47.637Z,15.10
2022-09-15T11:33:27.152Z,15.30
2022-09-15T11:36:01.241Z,15.20
2022-09-15T11:38:37.455Z,15.30
2022-09-15T11:41:22.190Z,15.20
2022-09-15T11:44:07.988Z,15.30
2022-09-15T11:46:57.641Z,15.30
2022-09-15T11:49:57.630Z,15.40
2022-09-15T11:52:43.287Z,15.40
2022-09-15T11:55:38.341Z,15.50
2022-09-15T11:58:30.128Z,15.50
2022-09-15T12:01:00.565Z,15.50
2022-09-15T12:03:44.979Z,15.60
2022-09-15T12:06:33.071Z,15.50
2022-09-15T12:09:03.556Z,15.50
2022-09-15T12:11:35.428Z,15.60
2022-09-15T12:14:04.627Z,15.60
2022-09-15T12:16:33.563Z,15.60
2022-09-15T12:19:14.605Z,15.60
2022-09-15T12:21:50.403Z,15.80
2022-09-15T12:24:31.731Z,16.00
2022-09-15T12:27:02.488Z,16.00
2022-09-15T12:29:38.064Z,16.10
2022-09-15T12:32:18.724Z,16.00
2022-09-15T12:35:17.326Z,16.00
2022-09-15T12:37:54.646Z,15.90
2022-09-15T12:40:26.575Z,15.90
2022-09-15T12:42:54.039Z,15.90
2022-09-15T12:45:28.762Z,15.90
2022-09-15T12:47:57.123Z,15.90
2022-09-15T12:50:36.369Z,15.90
2022-09-15T12:53:20.978Z,15.90
2022-09-15T12:55:56.213Z,16.00
2022-09-15T12:58:43.146Z,16.00
2022-09-15T13:01:19.536Z,16.10
2022-09-15T13:03:57.726Z,16.00
2022-09-15T13:06:29.575Z,16.00
2022-09-15T13:09:02.637Z,16.00
2022-09-15T13:11:38.517Z,15.90
2022-09-15T13:14:08.571Z,15.90
2022-09-15T13:16:43.790Z,15.80
2022-09-15T13:19:15.319Z,15.80
2022-09-15T13:21:43.986Z,15.90
2022-09-15T13:24:59.104Z,15.90
2022-09-15T13:27:43.672Z,15.90
2022-09-15T13:30:29.406Z,15.90
2022-09-15T13:33:13.024Z,15.90
2022-09-15T13:36:00.259Z,15.90
2022-09-15T13:38:48.703Z,15.90
2022-09-15T13:41:28.158Z,16.00
2022-09-15T13:44:10.276Z,15.80
2022-09-15T13:46:52.378Z,15.80
2022-09-15T13:49:22.017Z,15.90
2022-09-15T13:52:08.278Z,15.90
2022-09-15T13:54:35.365Z,15.80
2022-09-15T13:57:02.988Z,15.80
2022-09-15T13:59:32.697Z,15.90
2022-09-15T14:02:00.648Z,15.80
2022-09-15T14:04:31.057Z,15.80
2022-09-15T14:07:02.396Z,15.90
2022-09-15T14:09:39.619Z,15.90
2022-09-15T14:12:10.814Z,15.90
2022-09-15T14:14:55.603Z,15.80
2022-09-15T14:17:28.731Z,15.80
2022-09-15T14:19:58.625Z,15.80
2022-09-15T14:22:31.797Z,15.70
2022-09-15T14:25:04.362Z,15.70
2022-09-15T14:27:34.827Z,15.70
2022-09-15T14:30:04.716Z,15.60
2022-09-15T14:32:36.047Z,15.50
2022-09-15T14:35:07.616Z,15.50
2022-09-15T14:37:34.824Z,15.50
2022-09-15T14:40:16.645Z,15.40
2022-09-15T14:42:43.846Z,15.40
2022-09-15T14:48:06.089Z,15.40
2022-09-15T14:50:33.787Z,15.40
2022-09-15T14:53:07.135Z,15.50
2022-09-15T14:56:02.256Z,15.50
2022-09-15T14:58:42.617Z,15.40
2022-09-15T15:01:22.516Z,15.40
2022-09-15T15:04:10.070Z,15.40
2022-09-15T15:06:50.612Z,15.40
2022-09-15T15:09:34.619Z,15.30
2022-09-15T15:12:07.276Z,15.50
2022-09-15T15:14:35.522Z,16.10
2022-09-15T15:17:06.185Z,16.40
2022-09-15T15:19:42.079Z,16.30
2022-09-15T15:22:21.376Z,16.10
2022-09-15T15:24:50.296Z,15.80
2022-09-15T15:27:35.161Z,15.70
2022-09-15T15:30:29.758Z,15.60
2022-09-15T15:33:17.416Z,15.40
2022-09-15T15:35:46.801Z,15.40
2022-09-15T15:38:18.411Z,15.30
2022-09-15T15:40:46.118Z,15.30
2022-09-15T15:43:24.168Z,15.30
2022-09-15T15:46:01.324Z,15.20
2022-09-15T15:48:36.766Z,15.10
2022-09-15T15:51:05.880Z,15.00
2022-09-15T15:53:33.116Z,15.00
2022-09-15T15:56:00.851Z,14.90
2022-09-15T15:58:27.760Z,14.90
2022-09-15T16:00:59.344Z,14.80
2022-09-15T16:03:26.252Z,14.80
2022-09-15T16:05:58.373Z,14.80
2022-09-15T16:08:31.669Z,14.80
2022-09-15T16:11:01.457Z,14.70
2022-09-15T16:13:28.985Z,14.70
2022-09-15T16:15:57.943Z,14.60
2022-09-15T16:18:25.011Z,14.60
2022-09-15T16:20:54.058Z,14.60
2022-09-15T16:23:22.827Z,14.60
2022-09-15T16:25:53.560Z,14.60
2022-09-15T16:28:20.623Z,14.60
2022-09-15T16:30:47.573Z,14.50
2022-09-15T16:33:19.110Z,14.50
2022-09-15T16:36:06.989Z,14.50
2022-09-15T16:38:35.617Z,14.50
2022-09-15T16:41:04.211Z,14.40
2022-09-15T16:43:31.192Z,14.40
2022-09-15T16:45:58.339Z,14.50
2022-09-15T16:48:25.371Z,14.40
2022-09-15T16:53:39.694Z,14.40
2022-09-15T16:56:10.010Z,14.40
2022-09-15T16:58:36.839Z,14.40
2022-09-15T17:01:04.180Z,14.40
2022-09-15T17:03:31.340Z,14.40
2022-09-15T17:06:00.448Z,14.30
2022-09-15T17:08:30.193Z,14.30
2022-09-15T17:11:02.725Z,14.30
2022-09-15T17:13:32.536Z,14.20
2022-09-15T17:16:00.923Z,14.20
2022-09-15T17:18:28.492Z,14.10
2022-09-15T17:20:55.618Z,14.10
2022-09-15T17:23:32.324Z,14.10
2022-09-15T17:26:01.529Z,14.00
2022-09-15T17:28:31.197Z,14.00
2022-09-15T17:31:03.951Z,14.00
2022-09-15T17:33:32.061Z,13.90
2022-09-15T17:36:00.107Z,13.90
2022-09-15T17:38:27.590Z,13.80
2022-09-15T17:40:55.498Z,13.80
2022-09-15T17:43:25.284Z,13.70
2022-09-15T17:45:53.196Z,13.70
2022-09-15T17:48:20.857Z,13.70
2022-09-15T17:50:48.788Z,13.60
2022-09-15T17:53:18.612Z,13.60
2022-09-15T17:55:45.418Z,13.60
2022-09-15T17:58:12.607Z,13.60
2022-09-15T18:00:41.182Z,13.50
2022-09-15T18:03:27.650Z,13.50
2022-09-15T18:05:56.275Z,13.50
2022-09-15T18:08:23.282Z,13.50
2022-09-15T18:10:50.784Z,13.40
2022-09-15T18:13:20.419Z,13.40
2022-09-15T18:15:49.118Z,13.40
2022-09-15T18:18:19.955Z,13.30
2022-09-15T18:20:47.414Z,13.30
2022-09-15T18:23:17.086Z,13.30
2022-09-15T18:25:45.066Z,13.30
2022-09-15T18:28:12.190Z,13.20
2022-09-15T18:30:42.744Z,13.20
2022-09-15T18:33:24.284Z,13.20
2022-09-15T18:35:53.836Z,13.20
2022-09-15T18:38:21.934Z,13.10
2022-09-15T18:40:53.322Z,13.20
2022-09-15T18:43:20.494Z,13.30
2022-09-15T18:45:48.376Z,13.30
2022-09-15T18:48:15.774Z,13.20
2022-09-15T18:50:44.866Z,13.20
2022-09-15T18:53:12.031Z,13.10
2022-09-15T18:55:42.099Z,13.10
2022-09-15T18:58:09.827Z,13.10
2022-09-15T19:00:36.842Z,13.00
2022-09-15T19:03:06.124Z,13.00
2022-09-15T19:05:33.600Z,13.00
2022-09-15T19:08:01.942Z,13.00
2022-09-15T19:10:29.260Z,12.90
2022-09-15T19:12:56.097Z,12.90
2022-09-15T19:15:24.251Z,12.90
2022-09-15T19:17:51.436Z,12.90
2022-09-15T19:20:18.897Z,12.90
2022-09-15T19:22:46.416Z,12.90
2022-09-15T19:25:13.858Z,12.90
2022-09-15T19:27:41.621Z,12.90
2022-09-15T19:30:12.751Z,12.90
2022-09-15T19:32:40.457Z,12.90
2022-09-15T19:35:08.414Z,12.80
2022-09-15T19:37:39.659Z,12.80
2022-09-15T19:40:09.790Z,12.80
2022-09-15T19:42:38.611Z,12.80
2022-09-15T19:45:06.348Z,12.80
2022-09-15T19:47:33.602Z,12.90
2022-09-15T19:50:00.561Z,12.90
2022-09-15T19:52:28.422Z,12.80
2022-09-15T19:54:55.424Z,12.90
2022-09-15T19:57:23.196Z,12.80
2022-09-15T19:59:50.515Z,12.90
2022-09-15T20:02:17.429Z,12.90
2022-09-15T20:07:29.297Z,12.90
2022-09-15T20:09:56.101Z,12.90
2022-09-15T20:12:23.940Z,12.90
2022-09-15T20:14:50.773Z,12.90
2022-09-15T20:17:18.336Z,12.80
2022-09-15T20:19:45.149Z,12.80
2022-09-15T20:22:11.972Z,12.70
2022-09-15T20:24:38.778Z,12.70
2022-09-15T20:27:05.851Z,12.70
2022-09-15T20:29:32.664Z,12.70
2022-09-15T20:31:59.836Z,12.60
2022-09-15T20:34:27.597Z,12.60
2022-09-15T20:36:54.428Z,12.60
2022-09-15T20:39:22.549Z,12.60
2022-09-15T20:41:50.392Z,12.60
2022-09-15T20:44:17.330Z,12.60
2022-09-15T20:46:44.188Z,12.70
2022-09-15T20:49:12.244Z,12.70
2022-09-15T20:51:39.084Z,12.70
2022-09-15T20:54:06.509Z,12.60
2022-09-15T20:56:35.071Z,12.50
2022-09-15T20:59:02.953Z,12.50
2022-09-15T21:01:34.484Z,12.40
2022-09-15T21:04:01.347Z,12.40
2022-09-15T21:06:29.039Z,12.40
2022-09-15T21:08:56.920Z,12.40
2022-09-15T21:11:26.581Z,12.30
2022-09-15T21:13:54.453Z,12.40
2022-09-15T21:16:23.817Z,12.30
2022-09-15T21:18:51.527Z,12.20
2022-09-15T21:21:30.300Z,12.30
2022-09-15T21:24:04.093Z,12.20
2022-09-15T21:26:58.133Z,12.20
2022-09-15T21:29:25.458Z,12.20
2022-09-15T21:31:52.808Z,12.20
2022-09-15T21:34:20.206Z,12.20
2022-09-15T21:36:47.054Z,12.20
2022-09-15T21:39:13.884Z,12.20
2022-09-15T21:41:40.711Z,12.20
2022-09-15T21:44:07.524Z,12.20
2022-09-15T21:46:34.361Z,12.20
2022-09-15T21:49:01.249Z,12.20
2022-09-15T21:51:29.523Z,12.20
2022-09-15T21:53:58.785Z,12.30
2022-09-15T21:56:27.419Z,12.30
2022-09-15T21:58:54.662Z,12.20
2022-09-15T22:01:29.979Z,12.20
2022-09-15T22:03:59.203Z,12.20
2022-09-15T22:06:32.026Z,12.20
2022-09-15T22:09:05.339Z,12.10
2022-09-15T22:11:32.730Z,12.10
2022-09-15T22:14:01.812Z,12.10
2022-09-15T22:16:29.199Z,12.00
2022-09-15T22:18:56.616Z,12.00
2022-09-15T22:21:26.241Z,12.00
2022-09-15T22:23:59.175Z,12.00
2022-09-15T22:26:28.312Z,12.00
2022-09-15T22:28:56.646Z,11.90
2022-09-15T22:31:24.825Z,11.90
2022-09-15T22:33:53.060Z,11.80
2022-09-15T22:36:26.596Z,11.80
2022-09-15T22:39:02.807Z,11.80
2022-09-15T22:41:30.350Z,11.80
2022-09-15T22:43:57.454Z,11.80
2022-09-15T22:46:24.287Z,11.70
2022-09-15T22:48:51.176Z,11.80
2022-09-15T22:51:18.103Z,11.70
2022-09-15T22:53:45.077Z,11.80
2022-09-15T22:56:15.336Z,11.70
2022-09-15T22:58:44.129Z,11.70
2022-09-15T23:01:24.276Z,11.60
2022-09-15T23:03:56.665Z,11.60
2022-09-15T23:06:25.591Z,11.60
2022-09-15T23:08:53.823Z,11.60
2022-09-15T23:11:21.138Z,11.60
2022-09-15T23:13:48.716Z,11.60
2022-09-15T23:16:15.838Z,11.60
2022-09-15T23:18:43.042Z,11.50
2022-09-15T23:21:11.492Z,11.60
2022-09-15T23:23:40.685Z,11.50
2022-09-15T23:26:10.269Z,11.50
2022-09-15T23:28:39.156Z,11.50
2022-09-15T23:31:07.206Z,11.50
2022-09-15T23:33:34.723Z,11.50
2022-09-15T23:36:07.104Z,11.50
2022-09-15T23:38:39.041Z,11.50
2022-09-15T23:41:06.866Z,11.60
2022-09-15T23:43:34.111Z,11.60
2022-09-15T23:46:01.580Z,11.40
2022-09-15T23:48:29.110Z,11.40
2022-09-15T23:50:55.989Z,11.30
2022-09-15T23:53:22.785Z,11.30
2022-09-15T23:55:50.288Z,11.30
2022-09-15T23:58:17.712Z,11.30
